KMCJ

Houston

Houston, Texas, USA
METAR KMCJ 211535Z AUTO 00000KT 9SM SCT026 11/06 A3025 RMK A01
Observed Flight Rules
Jan-21 @ 15:35 UTC (19 minutes ago) Visual Flight Rules
Visibility Clouds
9 miles
  • Scattered at 2,600' AGL
Temperatures Readings
Current 11°C / 52°F
Dewpoint 6°C / 43°F
Humidity 72%
Altimeter 30.25" Hg
Pressure 1024.42 hPa
Elevation 69
METAR KMCJ 211535Z AUTO 00000KT 9SM SCT026 11/06 A3025 RMK A01
Observed Flight Rules
Jan-21 @ 15:35 UTC
(19 minutes ago)
VFR
Clouds
  • Scattered at 2,600' AGL
Temperature Dewpoint
11°C / 52°F 6°C / 43°F
Humidity Altimeter Pressure
72% 30.25" Hg 1024.42 hPa